createdAt,value
2018-01-30T00:00:06.033Z,11.95
2018-01-30T00:00:46.581Z,11.86
2018-01-30T00:01:27.115Z,11.88
2018-01-30T00:02:07.651Z,11.94
2018-01-30T00:02:48.164Z,12.02
2018-01-30T00:03:28.750Z,12.02
2018-01-30T00:04:09.357Z,12.04
2018-01-30T00:04:49.901Z,12.05
2018-01-30T00:05:31.092Z,11.95
2018-01-30T00:06:11.747Z,12.04
2018-01-30T00:06:52.336Z,11.94
2018-01-30T00:07:33.347Z,11.94
2018-01-30T00:08:13.920Z,11.95
2018-01-30T00:08:54.460Z,11.95
2018-01-30T00:09:35.033Z,12.02
2018-01-30T00:10:15.564Z,12.04
2018-01-30T00:10:56.155Z,12.05
2018-01-30T00:11:36.750Z,12.05
2018-01-30T00:12:17.326Z,11.9
2018-01-30T00:12:57.962Z,11.95
2018-01-30T00:13:38.385Z,12.09
2018-01-30T00:14:18.900Z,12.04
2018-01-30T00:14:59.456Z,11.96
2018-01-30T00:15:40.029Z,11.96
2018-01-30T00:16:20.593Z,11.95
2018-01-30T00:17:01.141Z,11.96
2018-01-30T00:17:41.802Z,11.98
2018-01-30T00:18:22.450Z,11.99
2018-01-30T00:19:02.933Z,11.99
2018-01-30T00:19:44.126Z,12.13
2018-01-30T00:20:24.657Z,12.16
2018-01-30T00:21:05.252Z,12.09
2018-01-30T00:21:45.734Z,12.04
2018-01-30T00:22:26.275Z,11.98
2018-01-30T00:23:06.775Z,11.98
2018-01-30T00:23:47.318Z,11.96
2018-01-30T00:24:27.972Z,11.99
2018-01-30T00:25:08.517Z,11.99
2018-01-30T00:25:49.230Z,12.04
2018-01-30T00:26:29.759Z,11.88
2018-01-30T00:27:10.381Z,11.94
2018-01-30T00:27:50.938Z,11.96
2018-01-30T00:28:31.446Z,11.96
2018-01-30T00:29:12.311Z,11.94
2018-01-30T00:29:52.941Z,11.94
2018-01-30T00:30:33.445Z,12.05
2018-01-30T00:31:14.666Z,12.13
2018-01-30T00:31:55.010Z,12.13
2018-01-30T00:32:35.546Z,12.13
2018-01-30T00:33:16.114Z,12.05
2018-01-30T00:33:56.665Z,12.09
2018-01-30T00:34:37.245Z,12.02
2018-01-30T00:35:17.796Z,12.01
2018-01-30T00:35:58.350Z,12.01
2018-01-30T00:36:38.888Z,11.96
2018-01-30T00:37:19.523Z,12.04
2018-01-30T00:38:00.116Z,12.05
2018-01-30T00:38:40.628Z,12.01
2018-01-30T00:39:21.185Z,12.02
2018-01-30T00:40:01.767Z,11.94
2018-01-30T00:40:42.374Z,11.95
2018-01-30T00:41:22.863Z,11.98
2018-01-30T00:42:03.449Z,12.02
2018-01-30T00:42:43.992Z,12.09
2018-01-30T00:43:24.531Z,12.1
2018-01-30T00:44:05.088Z,12.04
2018-01-30T00:44:45.623Z,12.07
2018-01-30T00:45:26.178Z,12.1
2018-01-30T00:46:07.011Z,12.12
2018-01-30T00:46:47.534Z,12.01
2018-01-30T00:47:28.081Z,12.02
2018-01-30T00:48:08.619Z,12.01
2018-01-30T00:48:49.166Z,12.16
2018-01-30T00:49:29.704Z,12.05
2018-01-30T00:50:10.236Z,11.95
2018-01-30T00:50:50.799Z,12.07
2018-01-30T00:51:31.345Z,12.05
2018-01-30T00:52:11.872Z,12.02
2018-01-30T00:52:52.391Z,12.02
2018-01-30T00:53:32.923Z,12.12
2018-01-30T00:54:13.503Z,12.17
2018-01-30T00:54:54.027Z,12.17
2018-01-30T00:55:34.651Z,12.12
2018-01-30T00:56:15.280Z,12.28
2018-01-30T00:56:55.749Z,12.2
2018-01-30T00:57:36.290Z,12.13
2018-01-30T00:58:16.842Z,12.1
2018-01-30T00:58:57.403Z,12.04
2018-01-30T00:59:37.939Z,11.88
2018-01-30T01:00:18.695Z,11.83
2018-01-30T01:00:59.233Z,11.88
2018-01-30T01:01:39.751Z,11.86
2018-01-30T01:02:20.308Z,11.82
2018-01-30T01:03:00.816Z,11.78
2018-01-30T01:03:41.368Z,11.8
2018-01-30T01:04:21.950Z,11.8
2018-01-30T01:05:02.481Z,11.78
2018-01-30T01:05:43.004Z,11.72
2018-01-30T01:06:23.533Z,11.62
2018-01-30T01:07:04.057Z,11.73
2018-01-30T01:07:44.609Z,11.72
2018-01-30T01:08:25.163Z,11.73
2018-01-30T01:09:05.701Z,11.69
2018-01-30T01:09:46.230Z,11.64
2018-01-30T01:10:26.763Z,11.7
2018-01-30T01:11:07.321Z,11.7
2018-01-30T01:11:47.874Z,11.72
2018-01-30T01:12:28.430Z,11.62
2018-01-30T01:13:08.975Z,11.65
2018-01-30T01:13:49.523Z,11.65
2018-01-30T01:14:30.072Z,11.82
2018-01-30T01:15:10.627Z,11.76
2018-01-30T01:15:51.168Z,11.91
2018-01-30T01:16:31.700Z,11.8
2018-01-30T01:17:12.249Z,11.8
2018-01-30T01:17:52.788Z,11.7
2018-01-30T01:18:33.347Z,11.8
2018-01-30T01:19:13.851Z,11.76
2018-01-30T01:19:54.399Z,11.79
2018-01-30T01:20:34.966Z,11.65
2018-01-30T01:21:15.507Z,11.73
2018-01-30T01:21:56.047Z,11.78
2018-01-30T01:22:36.584Z,11.75
2018-01-30T01:23:17.135Z,11.75
2018-01-30T01:23:57.679Z,11.79
2018-01-30T01:24:38.225Z,11.75
2018-01-30T01:25:18.758Z,11.78
2018-01-30T01:25:59.315Z,11.78
2018-01-30T01:26:39.877Z,11.8
2018-01-30T01:27:20.447Z,11.72
2018-01-30T01:28:01.003Z,11.82
2018-01-30T01:28:41.558Z,11.83
2018-01-30T01:29:22.114Z,11.73
2018-01-30T01:30:02.681Z,11.6
2018-01-30T01:30:43.232Z,11.64
2018-01-30T01:31:23.767Z,11.61
2018-01-30T01:32:04.315Z,11.62
2018-01-30T01:32:44.824Z,11.6
2018-01-30T01:33:25.381Z,11.52
2018-01-30T01:34:05.909Z,11.72
2018-01-30T01:34:46.460Z,11.67
2018-01-30T01:35:26.983Z,11.7
2018-01-30T01:36:07.521Z,11.62
2018-01-30T01:36:48.698Z,11.65
2018-01-30T01:37:29.220Z,11.69
2018-01-30T01:38:09.786Z,11.62
2018-01-30T01:38:50.332Z,11.58
2018-01-30T01:39:30.907Z,11.7
2018-01-30T01:40:11.430Z,11.67
2018-01-30T01:40:51.981Z,11.64
2018-01-30T01:41:32.514Z,11.65
2018-01-30T01:42:13.062Z,11.65
2018-01-30T01:42:53.603Z,11.58
2018-01-30T01:43:34.148Z,11.65
2018-01-30T01:44:14.681Z,11.65
2018-01-30T01:44:55.203Z,11.67
2018-01-30T01:45:35.742Z,11.82
2018-01-30T01:46:16.301Z,11.75
2018-01-30T01:46:56.851Z,11.75
2018-01-30T01:47:37.408Z,11.83
2018-01-30T01:48:17.963Z,11.76
2018-01-30T01:48:58.525Z,11.69
2018-01-30T01:49:39.074Z,11.7
2018-01-30T01:50:19.613Z,11.64
2018-01-30T01:51:00.141Z,11.69
2018-01-30T01:51:40.682Z,11.8
2018-01-30T01:52:21.214Z,11.69
2018-01-30T01:53:01.779Z,11.75
2018-01-30T01:53:42.330Z,11.76
2018-01-30T01:54:22.897Z,11.88
2018-01-30T01:55:03.464Z,11.88
2018-01-30T01:55:44.030Z,11.9
2018-01-30T01:56:24.582Z,11.85
2018-01-30T01:57:05.131Z,11.79
2018-01-30T01:57:45.668Z,11.85
2018-01-30T01:58:26.240Z,11.73
2018-01-30T01:59:06.786Z,11.76
2018-01-30T01:59:47.325Z,11.8
2018-01-30T02:00:27.880Z,11.79
2018-01-30T02:01:08.416Z,11.98
2018-01-30T02:01:48.979Z,11.86
2018-01-30T02:02:29.507Z,11.82
2018-01-30T02:03:10.051Z,11.82
2018-01-30T02:03:50.603Z,11.95
2018-01-30T02:04:31.169Z,11.86
2018-01-30T02:05:11.720Z,11.75
2018-01-30T02:05:52.274Z,11.73
2018-01-30T02:06:32.811Z,11.72
2018-01-30T02:07:13.345Z,11.64
2018-01-30T02:07:53.901Z,11.62
2018-01-30T02:08:34.458Z,11.62
2018-01-30T02:09:14.991Z,11.6
2018-01-30T02:09:55.519Z,11.6
2018-01-30T02:10:36.060Z,11.7
2018-01-30T02:11:16.690Z,11.65
2018-01-30T02:11:57.193Z,11.75
2018-01-30T02:12:37.740Z,11.73
2018-01-30T02:13:18.289Z,11.82
2018-01-30T02:13:58.820Z,11.72
2018-01-30T02:14:39.350Z,11.67
2018-01-30T02:15:19.910Z,11.72
2018-01-30T02:16:00.483Z,11.65
2018-01-30T02:16:41.040Z,11.64
2018-01-30T02:17:21.618Z,11.72
2018-01-30T02:18:02.184Z,11.76
2018-01-30T02:18:42.709Z,11.78
2018-01-30T02:19:23.271Z,11.94
2018-01-30T02:20:03.822Z,11.91
2018-01-30T02:20:44.380Z,11.95
2018-01-30T02:21:24.954Z,11.9
2018-01-30T02:22:05.518Z,11.96
2018-01-30T02:22:46.075Z,11.99
2018-01-30T02:23:26.637Z,12.05
2018-01-30T02:24:07.181Z,12.02
2018-01-30T02:24:47.723Z,11.99
2018-01-30T02:25:28.295Z,11.85
2018-01-30T02:26:08.839Z,11.86
2018-01-30T02:26:49.402Z,11.96
2018-01-30T02:27:29.946Z,11.86
2018-01-30T02:28:10.525Z,11.79
2018-01-30T02:28:51.063Z,11.79
2018-01-30T02:29:31.623Z,11.78
2018-01-30T02:30:12.172Z,11.76
2018-01-30T02:30:52.705Z,11.7
2018-01-30T02:31:33.257Z,11.83
2018-01-30T02:32:13.790Z,11.65
2018-01-30T02:32:54.342Z,11.85
2018-01-30T02:33:34.883Z,11.76
2018-01-30T02:34:15.429Z,11.82
2018-01-30T02:34:55.971Z,11.54
2018-01-30T02:35:36.507Z,11.65
2018-01-30T02:36:17.020Z,11.57
2018-01-30T02:36:57.557Z,11.6
2018-01-30T02:37:38.110Z,11.55
2018-01-30T02:38:18.642Z,11.65
2018-01-30T02:38:59.191Z,11.64
2018-01-30T02:39:39.730Z,11.72
2018-01-30T02:40:20.254Z,11.72
2018-01-30T02:41:00.805Z,11.69
2018-01-30T02:41:41.357Z,11.64
2018-01-30T02:42:21.890Z,11.72
2018-01-30T02:43:02.407Z,11.6
2018-01-30T02:43:42.968Z,11.6
2018-01-30T02:44:23.493Z,11.65
2018-01-30T02:45:04.082Z,11.72
2018-01-30T02:45:44.679Z,11.61
2018-01-30T02:46:25.187Z,11.6
2018-01-30T02:47:05.760Z,11.69
2018-01-30T02:47:46.314Z,11.69
2018-01-30T02:48:26.878Z,11.8
2018-01-30T02:49:07.364Z,11.78
2018-01-30T02:49:47.912Z,11.75
2018-01-30T02:50:28.435Z,11.78
2018-01-30T02:51:09.007Z,11.8
2018-01-30T02:51:49.551Z,11.79
2018-01-30T02:52:30.089Z,11.75
2018-01-30T02:53:10.625Z,11.79
2018-01-30T02:53:51.156Z,11.8
2018-01-30T02:54:31.691Z,11.79
2018-01-30T02:55:12.237Z,11.76
2018-01-30T02:55:52.802Z,11.75
2018-01-30T02:56:33.279Z,11.65
2018-01-30T02:57:13.813Z,11.62
2018-01-30T02:57:54.360Z,11.64
2018-01-30T02:58:34.937Z,11.76
2018-01-30T02:59:15.479Z,11.64
2018-01-30T02:59:56.073Z,11.75
2018-01-30T03:00:36.603Z,11.83
2018-01-30T03:01:17.165Z,11.8
2018-01-30T03:01:57.666Z,11.82
2018-01-30T03:02:38.212Z,11.69
2018-01-30T03:03:18.761Z,11.76
2018-01-30T03:03:59.298Z,11.79
2018-01-30T03:04:39.851Z,11.8
2018-01-30T03:05:20.404Z,11.82
2018-01-30T03:06:00.934Z,11.83
2018-01-30T03:06:41.475Z,11.72
2018-01-30T03:07:22.020Z,11.72
2018-01-30T03:08:02.548Z,11.73
2018-01-30T03:08:43.091Z,11.82
2018-01-30T03:09:23.621Z,11.8
2018-01-30T03:10:04.180Z,11.82
2018-01-30T03:10:44.716Z,11.62
2018-01-30T03:11:25.284Z,11.64
2018-01-30T03:12:05.890Z,11.69
2018-01-30T03:12:46.409Z,11.7
2018-01-30T03:13:26.985Z,11.69
2018-01-30T03:14:07.533Z,11.82
2018-01-30T03:14:48.084Z,11.73
2018-01-30T03:15:28.649Z,11.76
2018-01-30T03:16:09.191Z,11.85
2018-01-30T03:16:49.746Z,11.85
2018-01-30T03:17:30.276Z,11.94
2018-01-30T03:18:10.825Z,11.98
2018-01-30T03:18:51.384Z,11.88
2018-01-30T03:19:31.932Z,11.96
2018-01-30T03:20:12.493Z,11.91
2018-01-30T03:20:53.063Z,11.98
2018-01-30T03:21:33.612Z,12.04
2018-01-30T03:22:14.168Z,12.01
2018-01-30T03:22:54.724Z,12.07
2018-01-30T03:23:35.281Z,12.04
2018-01-30T03:24:15.811Z,12.05
2018-01-30T03:24:56.364Z,12.04
2018-01-30T03:25:36.875Z,12.09
2018-01-30T03:26:17.446Z,12.04
2018-01-30T03:26:58.005Z,12.14
2018-01-30T03:27:38.561Z,12.16
2018-01-30T03:28:19.119Z,12.19
2018-01-30T03:28:59.685Z,12.13
2018-01-30T03:29:40.250Z,12.05
2018-01-30T03:30:20.806Z,12.14
2018-01-30T03:31:01.385Z,12.12
2018-01-30T03:31:41.952Z,12.13
2018-01-30T03:32:22.513Z,12.09
2018-01-30T03:33:03.075Z,12.05
2018-01-30T03:33:43.624Z,12.14
2018-01-30T03:34:24.178Z,12.23
2018-01-30T03:35:04.783Z,12.29
2018-01-30T03:35:45.312Z,12.34
2018-01-30T03:36:25.830Z,12.28
2018-01-30T03:37:06.397Z,12.32
2018-01-30T03:37:46.957Z,12.28
2018-01-30T03:38:27.507Z,12.17
2018-01-30T03:39:08.086Z,12.05
2018-01-30T03:39:48.657Z,12.04
2018-01-30T03:40:29.215Z,12.01
2018-01-30T03:41:09.770Z,12.07
2018-01-30T03:41:50.334Z,11.94
2018-01-30T03:42:30.892Z,11.83
2018-01-30T03:43:11.460Z,11.95
2018-01-30T03:43:52.020Z,12.02
2018-01-30T03:44:32.584Z,12.05
2018-01-30T03:45:13.136Z,12.01
2018-01-30T03:45:53.693Z,12.01
2018-01-30T03:46:34.257Z,11.98
2018-01-30T03:47:14.826Z,11.96
2018-01-30T03:47:55.381Z,11.88
2018-01-30T03:48:35.935Z,11.86
2018-01-30T03:49:16.503Z,11.99
2018-01-30T03:49:57.076Z,11.95
2018-01-30T03:50:37.628Z,11.96
2018-01-30T03:51:18.197Z,11.79
2018-01-30T03:51:58.748Z,11.75
2018-01-30T03:52:39.262Z,11.65
2018-01-30T03:53:19.797Z,11.7
2018-01-30T03:54:00.353Z,11.78
2018-01-30T03:54:40.923Z,11.91
2018-01-30T03:55:21.508Z,11.82
2018-01-30T03:56:02.077Z,11.76
2018-01-30T03:56:42.598Z,11.79
2018-01-30T03:57:23.156Z,11.88
2018-01-30T03:58:03.716Z,11.88
2018-01-30T03:58:44.291Z,12.01
2018-01-30T03:59:24.809Z,11.96
2018-01-30T04:00:05.358Z,11.9
2018-01-30T04:00:45.910Z,11.99
2018-01-30T04:01:26.498Z,12.04
2018-01-30T04:02:07.025Z,11.98
2018-01-30T04:02:47.598Z,12.04
2018-01-30T04:03:28.134Z,11.95
2018-01-30T04:04:08.700Z,12.05
2018-01-30T04:04:49.194Z,12.12
2018-01-30T04:05:29.738Z,12.05
2018-01-30T04:06:10.277Z,11.98
2018-01-30T04:06:50.831Z,12.04
2018-01-30T04:07:31.336Z,12.02
2018-01-30T04:08:11.904Z,12.02
2018-01-30T04:08:52.454Z,11.9
2018-01-30T04:09:32.997Z,11.96
2018-01-30T04:10:13.522Z,11.99
2018-01-30T04:10:54.078Z,11.99
2018-01-30T04:11:34.601Z,11.95
2018-01-30T04:12:15.172Z,12.12
2018-01-30T04:12:55.740Z,12.12
2018-01-30T04:13:36.283Z,12.16
2018-01-30T04:14:16.856Z,12.09
2018-01-30T04:14:57.416Z,12.13
2018-01-30T04:15:37.983Z,12.07
2018-01-30T04:16:18.543Z,12.09
2018-01-30T04:16:59.090Z,12.1
2018-01-30T04:17:39.641Z,12.05
2018-01-30T04:18:20.212Z,12.17
2018-01-30T04:19:00.769Z,12.16
2018-01-30T04:19:41.337Z,12.13
2018-01-30T04:20:21.899Z,12.17
2018-01-30T04:21:02.447Z,12.19
2018-01-30T04:21:43.025Z,12.23
2018-01-30T04:22:23.585Z,12.27
2018-01-30T04:23:04.154Z,12.14
2018-01-30T04:23:44.679Z,12.07
2018-01-30T04:24:25.233Z,11.99
2018-01-30T04:25:05.780Z,12.05
2018-01-30T04:25:46.338Z,12.09
2018-01-30T04:26:26.860Z,12.09
2018-01-30T04:27:07.370Z,12.04
2018-01-30T04:27:47.933Z,12.05
2018-01-30T04:28:28.440Z,12.07
2018-01-30T04:29:08.984Z,12.1
2018-01-30T04:29:49.523Z,12.2
2018-01-30T04:30:30.046Z,12.28
2018-01-30T04:31:10.608Z,12.28
2018-01-30T04:31:51.154Z,12.38
2018-01-30T04:32:31.703Z,12.27
2018-01-30T04:33:12.260Z,12.27
2018-01-30T04:33:52.787Z,12.37
2018-01-30T04:34:33.346Z,12.28
2018-01-30T04:35:13.894Z,12.35
2018-01-30T04:35:54.435Z,12.28
2018-01-30T04:36:35.018Z,12.34
2018-01-30T04:37:15.572Z,12.34
2018-01-30T04:37:56.099Z,12.28
2018-01-30T04:38:36.633Z,12.27
2018-01-30T04:39:17.194Z,12.28
2018-01-30T04:39:57.806Z,12.28
2018-01-30T04:40:38.408Z,12.24
2018-01-30T04:41:18.979Z,12.35
2018-01-30T04:41:59.519Z,12.52
2018-01-30T04:42:40.042Z,12.49
2018-01-30T04:43:20.621Z,12.57
2018-01-30T04:44:01.103Z,12.52
2018-01-30T04:44:41.636Z,12.5
2018-01-30T04:45:22.199Z,12.59
2018-01-30T04:46:02.768Z,12.52
2018-01-30T04:46:43.333Z,12.56
2018-01-30T04:47:23.901Z,12.52
2018-01-30T04:48:04.417Z,12.64
2018-01-30T04:48:44.962Z,12.57
2018-01-30T04:49:25.526Z,12.57
2018-01-30T04:50:06.141Z,12.65
2018-01-30T04:50:46.699Z,12.57
2018-01-30T04:51:27.251Z,12.59
2018-01-30T04:52:07.813Z,12.6
2018-01-30T04:52:48.381Z,12.67
2018-01-30T04:53:28.962Z,12.67
2018-01-30T04:54:09.508Z,12.7
2018-01-30T04:54:50.045Z,12.67
2018-01-30T04:55:30.586Z,12.59
2018-01-30T04:56:11.135Z,12.59
2018-01-30T04:56:51.691Z,12.67
2018-01-30T04:57:32.228Z,12.6
2018-01-30T04:58:12.732Z,12.72
2018-01-30T04:58:53.283Z,12.5
2018-01-30T04:59:33.840Z,12.57
2018-01-30T05:00:14.381Z,12.67
2018-01-30T05:00:54.948Z,12.64
2018-01-30T05:01:35.487Z,12.62
2018-01-30T05:02:16.037Z,12.67
2018-01-30T05:02:56.567Z,12.62
2018-01-30T05:03:37.104Z,12.72
2018-01-30T05:04:17.700Z,12.54
2018-01-30T05:04:58.217Z,12.54
2018-01-30T05:05:38.777Z,12.52
2018-01-30T05:06:19.317Z,12.47
2018-01-30T05:06:59.852Z,12.49
2018-01-30T05:07:40.384Z,12.35
2018-01-30T05:08:20.938Z,12.41
2018-01-30T05:09:01.439Z,12.32
2018-01-30T05:09:41.956Z,12.34
2018-01-30T05:10:22.493Z,12.32
2018-01-30T05:11:03.038Z,12.37
2018-01-30T05:11:43.583Z,12.28
2018-01-30T05:12:24.128Z,12.41
2018-01-30T05:13:04.677Z,12.37
2018-01-30T05:13:45.193Z,12.42
2018-01-30T05:14:25.738Z,12.47
2018-01-30T05:15:06.228Z,12.59
2018-01-30T05:15:46.764Z,12.56
2018-01-30T05:16:27.299Z,12.47
2018-01-30T05:17:07.857Z,12.57
2018-01-30T05:17:48.407Z,12.54
2018-01-30T05:18:28.935Z,12.59
2018-01-30T05:19:09.461Z,12.49
2018-01-30T05:19:50.014Z,12.57
2018-01-30T05:20:30.535Z,12.32
2018-01-30T05:21:11.072Z,12.41
2018-01-30T05:21:51.636Z,12.29
2018-01-30T05:22:32.147Z,12.28
2018-01-30T05:23:12.697Z,12.23
2018-01-30T05:23:53.242Z,12.27
2018-01-30T05:24:33.817Z,12.41
2018-01-30T05:25:14.330Z,12.34
2018-01-30T05:25:54.864Z,12.5
2018-01-30T05:26:35.410Z,12.35
2018-01-30T05:27:15.953Z,12.52
2018-01-30T05:27:56.481Z,12.49
2018-01-30T05:28:37.046Z,12.67
2018-01-30T05:29:17.619Z,12.6
2018-01-30T05:29:58.137Z,12.52
2018-01-30T05:30:38.685Z,12.6
2018-01-30T05:31:19.245Z,12.65
2018-01-30T05:31:59.822Z,12.53
2018-01-30T05:32:40.378Z,12.45
2018-01-30T05:33:20.923Z,12.39
2018-01-30T05:34:01.458Z,12.5
2018-01-30T05:34:42.040Z,12.47
2018-01-30T05:35:22.607Z,12.5
2018-01-30T05:36:03.141Z,12.41
2018-01-30T05:36:43.668Z,12.5
2018-01-30T05:37:24.211Z,12.52
2018-01-30T05:38:04.775Z,12.45
2018-01-30T05:38:45.327Z,12.39
2018-01-30T05:39:25.886Z,12.34
2018-01-30T05:40:06.403Z,12.47
2018-01-30T05:40:46.975Z,12.5
2018-01-30T05:41:27.507Z,12.53
2018-01-30T05:42:08.065Z,12.62
2018-01-30T05:42:48.616Z,12.49
2018-01-30T05:43:29.177Z,12.34
2018-01-30T05:44:09.780Z,12.47
2018-01-30T05:44:50.301Z,12.52
2018-01-30T05:45:30.880Z,12.49
2018-01-30T05:46:11.433Z,12.53
2018-01-30T05:46:52.025Z,12.68
2018-01-30T05:47:32.549Z,12.67
2018-01-30T05:48:13.114Z,12.64
2018-01-30T05:48:53.684Z,12.56
2018-01-30T05:49:34.251Z,12.62
2018-01-30T05:50:14.806Z,12.59
2018-01-30T05:50:55.378Z,12.65
2018-01-30T05:51:35.997Z,12.7
2018-01-30T05:52:16.530Z,12.75
2018-01-30T05:52:57.089Z,12.68
2018-01-30T05:53:37.637Z,12.74
2018-01-30T05:54:18.189Z,12.65
2018-01-30T05:54:58.753Z,12.65
2018-01-30T05:55:39.311Z,12.74
2018-01-30T05:56:19.830Z,12.7
2018-01-30T05:57:00.378Z,12.86
2018-01-30T05:57:40.932Z,12.83
2018-01-30T05:58:21.493Z,12.83
2018-01-30T05:59:02.062Z,12.79
2018-01-30T05:59:42.642Z,12.75
2018-01-30T06:00:23.184Z,12.82
2018-01-30T06:01:03.742Z,12.77
2018-01-30T06:01:44.302Z,12.83
2018-01-30T06:02:24.918Z,12.87
2018-01-30T06:03:05.465Z,12.87
2018-01-30T06:03:46.023Z,12.67
2018-01-30T06:04:26.579Z,12.68
2018-01-30T06:05:07.137Z,12.78
2018-01-30T06:05:47.693Z,12.89
2018-01-30T06:06:28.220Z,12.77
2018-01-30T06:07:09.068Z,12.85
2018-01-30T06:07:49.684Z,12.79
2018-01-30T06:08:30.206Z,12.82
2018-01-30T06:09:10.738Z,12.75
2018-01-30T06:09:51.231Z,12.7
2018-01-30T06:10:31.769Z,12.74
2018-01-30T06:11:12.333Z,12.71
2018-01-30T06:11:52.882Z,12.83
2018-01-30T06:12:33.371Z,12.85
2018-01-30T06:13:15.207Z,12.83
2018-01-30T06:13:55.731Z,12.87
2018-01-30T06:14:36.323Z,12.82
2018-01-30T06:15:16.822Z,12.79
2018-01-30T06:15:57.397Z,12.85
2018-01-30T06:16:37.951Z,12.82
2018-01-30T06:17:18.502Z,12.83
2018-01-30T06:17:59.057Z,12.74
2018-01-30T06:18:39.652Z,12.89
2018-01-30T06:19:20.213Z,12.78
2018-01-30T06:20:00.720Z,12.83
2018-01-30T06:20:41.298Z,12.9
2018-01-30T06:21:21.821Z,12.92
2018-01-30T06:22:02.382Z,12.97
2018-01-30T06:22:42.939Z,12.92
2018-01-30T06:23:23.481Z,12.85
2018-01-30T06:24:04.094Z,12.93
2018-01-30T06:24:44.634Z,12.97
2018-01-30T06:25:27.034Z,12.96
2018-01-30T06:26:07.652Z,12.97
2018-01-30T06:26:48.175Z,13
2018-01-30T06:27:28.711Z,13.1
2018-01-30T06:28:09.281Z,13
2018-01-30T06:28:49.846Z,12.97
2018-01-30T06:29:30.505Z,12.96
2018-01-30T06:30:10.979Z,12.95
2018-01-30T06:30:51.579Z,12.83
2018-01-30T06:31:32.139Z,12.78
2018-01-30T06:32:12.675Z,12.82
2018-01-30T06:32:53.232Z,12.97
2018-01-30T06:33:33.775Z,12.93
2018-01-30T06:34:14.417Z,13
2018-01-30T06:34:54.976Z,12.87
2018-01-30T06:35:35.683Z,12.9
2018-01-30T06:36:16.360Z,13.07
2018-01-30T06:36:57.195Z,12.95
2018-01-30T06:37:37.777Z,12.97
2018-01-30T06:38:18.348Z,12.9
2018-01-30T06:38:58.910Z,12.92
2018-01-30T06:39:40.510Z,12.86
2018-01-30T06:40:20.421Z,12.97
2018-01-30T06:41:01.035Z,12.92
2018-01-30T06:41:41.637Z,13.01
2018-01-30T06:42:22.171Z,12.96
2018-01-30T06:43:02.819Z,12.78
2018-01-30T06:43:43.370Z,12.75
2018-01-30T06:44:23.935Z,12.72
2018-01-30T06:45:04.880Z,12.78
2018-01-30T06:45:45.403Z,12.71
2018-01-30T06:46:26.191Z,12.83
2018-01-30T06:47:06.867Z,12.85
2018-01-30T06:47:47.378Z,12.64
2018-01-30T06:48:28.048Z,12.68
2018-01-30T06:49:08.580Z,12.71
2018-01-30T06:49:49.113Z,12.68
2018-01-30T06:50:29.691Z,12.89
2018-01-30T06:51:10.239Z,12.82
2018-01-30T06:51:50.785Z,12.71
2018-01-30T06:52:31.603Z,12.71
2018-01-30T06:53:11.986Z,12.75
2018-01-30T06:53:52.565Z,12.82
2018-01-30T06:54:33.030Z,12.75
2018-01-30T06:55:13.577Z,12.67
2018-01-30T06:55:54.194Z,12.68
2018-01-30T06:56:34.738Z,12.59
2018-01-30T06:57:15.255Z,12.46
2018-01-30T06:57:55.850Z,12.49
2018-01-30T06:58:36.394Z,12.49
2018-01-30T06:59:16.885Z,12.49
2018-01-30T06:59:57.450Z,12.47
2018-01-30T07:00:37.948Z,12.53
2018-01-30T07:01:18.463Z,12.47
2018-01-30T07:01:59.027Z,12.34
2018-01-30T07:02:39.770Z,12.27
2018-01-30T07:03:20.100Z,12.28
2018-01-30T07:04:00.636Z,12.41
2018-01-30T07:04:41.172Z,12.27
2018-01-30T07:05:21.689Z,12.35
2018-01-30T07:06:02.268Z,12.38
2018-01-30T07:06:42.886Z,12.52
2018-01-30T07:07:23.445Z,12.47
2018-01-30T07:08:04.819Z,12.47
2018-01-30T07:08:45.497Z,12.49
2018-01-30T07:09:26.065Z,12.46
2018-01-30T07:10:06.711Z,12.35
2018-01-30T07:10:47.341Z,12.54
2018-01-30T07:11:28.361Z,12.52
2018-01-30T07:12:09.012Z,12.62
2018-01-30T07:12:49.584Z,12.47
2018-01-30T07:13:30.301Z,12.54
2018-01-30T07:14:11.007Z,12.85
2018-01-30T07:14:51.893Z,12.64
2018-01-30T07:15:32.743Z,12.49
2018-01-30T07:16:13.346Z,12.6
2018-01-30T07:16:53.878Z,12.92
2018-01-30T07:17:34.423Z,12.93
2018-01-30T07:18:15.164Z,12.74
2018-01-30T07:18:55.736Z,12.71
2018-01-30T07:19:37.074Z,12.86
2018-01-30T07:20:17.870Z,13.01
2018-01-30T07:20:58.340Z,13.04
2018-01-30T07:21:38.905Z,13.08
2018-01-30T07:22:19.467Z,13.05
2018-01-30T07:22:59.989Z,13.32
2018-01-30T07:23:40.687Z,13.52
2018-01-30T07:24:21.247Z,13.55
2018-01-30T07:25:02.159Z,13.64
2018-01-30T07:25:42.374Z,13.62
2018-01-30T07:26:23.040Z,13.64
2018-01-30T07:27:03.613Z,13.75
2018-01-30T07:27:44.127Z,13.64
2018-01-30T07:28:24.696Z,13.7
2018-01-30T07:29:05.230Z,13.75
2018-01-30T07:29:45.762Z,13.71
2018-01-30T07:30:26.314Z,13.66
2018-01-30T07:31:06.968Z,13.67
2018-01-30T07:31:47.511Z,13.77
2018-01-30T07:32:28.085Z,13.82
2018-01-30T07:33:08.651Z,13.67
2018-01-30T07:33:49.178Z,13.64
2018-01-30T07:34:29.808Z,13.71
2018-01-30T07:35:10.316Z,13.75
2018-01-30T07:35:50.881Z,13.78
2018-01-30T07:36:31.430Z,13.87
2018-01-30T07:37:11.980Z,13.85
2018-01-30T07:37:52.514Z,13.91
2018-01-30T07:38:33.093Z,13.84
2018-01-30T07:39:13.644Z,13.87
2018-01-30T07:39:54.162Z,13.71
2018-01-30T07:40:34.744Z,13.6
2018-01-30T07:41:15.235Z,13.71
2018-01-30T07:41:55.790Z,13.75
2018-01-30T07:42:36.322Z,13.66
2018-01-30T07:43:16.861Z,13.78
2018-01-30T07:43:57.413Z,13.71
2018-01-30T07:44:37.945Z,13.75
2018-01-30T07:45:18.479Z,13.81
2018-01-30T07:45:59.086Z,13.77
2018-01-30T07:46:39.548Z,13.79
2018-01-30T07:47:20.103Z,13.81
2018-01-30T07:48:00.640Z,13.87
2018-01-30T07:48:41.195Z,13.84
2018-01-30T07:49:21.743Z,13.91
2018-01-30T07:50:02.254Z,13.84
2018-01-30T07:50:42.811Z,13.84
2018-01-30T07:51:23.410Z,13.82
2018-01-30T07:52:03.964Z,13.78
2018-01-30T07:52:44.534Z,13.73
2018-01-30T07:53:25.061Z,13.73
2018-01-30T07:54:05.650Z,13.77
2018-01-30T07:54:46.230Z,13.95
2018-01-30T07:55:26.744Z,13.85
2018-01-30T07:56:07.273Z,13.81
2018-01-30T07:56:47.820Z,13.85
2018-01-30T07:57:28.381Z,13.81
2018-01-30T07:58:08.965Z,13.89
2018-01-30T07:58:49.496Z,13.85
2018-01-30T07:59:30.087Z,13.81
2018-01-30T08:00:10.626Z,13.78
2018-01-30T08:00:51.173Z,13.88
2018-01-30T08:01:31.716Z,13.96
2018-01-30T08:02:12.268Z,13.99
2018-01-30T08:02:52.805Z,14.06
2018-01-30T08:03:33.378Z,14.09
2018-01-30T08:04:13.959Z,14.15
2018-01-30T08:04:54.512Z,14.15
2018-01-30T08:05:35.057Z,14.17
2018-01-30T08:06:15.612Z,14.25
2018-01-30T08:06:56.113Z,14.25
2018-01-30T08:07:36.657Z,14.33
2018-01-30T08:08:17.192Z,14.28
2018-01-30T08:08:57.768Z,14.27
2018-01-30T08:09:38.307Z,14.43
2018-01-30T08:10:18.852Z,14.37
2018-01-30T08:10:59.431Z,14.35
2018-01-30T08:11:39.961Z,14.29
2018-01-30T08:12:20.482Z,14.28
2018-01-30T08:13:01.103Z,14.22
2018-01-30T08:13:41.652Z,14.32
2018-01-30T08:14:22.183Z,14.15
2018-01-30T08:15:02.869Z,14.21
2018-01-30T08:15:43.450Z,14.14
2018-01-30T08:16:23.958Z,14.14
2018-01-30T08:17:04.470Z,14.14
2018-01-30T08:17:45.066Z,14.2
2018-01-30T08:18:25.603Z,14.18
2018-01-30T08:19:06.191Z,14.36
2018-01-30T08:19:46.720Z,14.4
2018-01-30T08:20:27.239Z,14.42
2018-01-30T08:21:07.773Z,14.45
2018-01-30T08:21:48.325Z,14.45
2018-01-30T08:22:28.919Z,14.5
2018-01-30T08:23:09.425Z,14.46
2018-01-30T08:23:49.966Z,14.57
2018-01-30T08:24:30.519Z,14.5
2018-01-30T08:25:11.041Z,14.51
2018-01-30T08:25:51.557Z,14.54
2018-01-30T08:26:32.137Z,14.47
2018-01-30T08:27:12.673Z,14.46
2018-01-30T08:27:53.234Z,14.33
2018-01-30T08:28:33.829Z,14.36
2018-01-30T08:29:14.467Z,14.5
2018-01-30T08:29:55.006Z,14.5
2018-01-30T08:30:35.565Z,14.51
2018-01-30T08:31:16.128Z,14.5
2018-01-30T08:31:56.978Z,14.52
2018-01-30T08:32:37.605Z,14.55
2018-01-30T08:33:18.090Z,14.6
2018-01-30T08:33:58.712Z,14.6
2018-01-30T08:34:39.304Z,14.65
2018-01-30T08:35:19.865Z,14.65
2018-01-30T08:36:00.351Z,14.68
2018-01-30T08:36:40.897Z,14.7
2018-01-30T08:37:21.468Z,14.72
2018-01-30T08:38:02.026Z,14.69
2018-01-30T08:38:42.556Z,14.6
2018-01-30T08:39:23.151Z,14.6
2018-01-30T08:40:03.753Z,14.61
2018-01-30T08:40:44.315Z,14.65
2018-01-30T08:41:24.851Z,14.65
2018-01-30T08:42:05.446Z,14.64
2018-01-30T08:42:45.992Z,14.61
2018-01-30T08:43:26.518Z,14.7
2018-01-30T08:44:07.288Z,14.81